sensor_id;sensor_type;location;lat;lon;timestamp;pressure;altitude;pressure_sealevel;temperature;humidity
20027;BME280;10174;42.688;23.344;2023-12-20T00:01:47;95756.94;;;-0.88;100.00
20027;BME280;10174;42.688;23.344;2023-12-20T00:04:12;95753.28;;;-0.87;100.00
20027;BME280;10174;42.688;23.344;2023-12-20T00:06:38;95762.31;;;-0.82;100.00
20027;BME280;10174;42.688;23.344;2023-12-20T00:09:03;95764.00;;;-0.89;100.00
20027;BME280;10174;42.688;23.344;2023-12-20T00:11:29;95762.09;;;-0.95;100.00
20027;BME280;10174;42.688;23.344;2023-12-20T00:13:54;95746.06;;;-1.09;100.00
20027;BME280;10174;42.688;23.344;2023-12-20T00:16:20;95747.88;;;-1.09;100.00
20027;BME280;10174;42.688;23.344;2023-12-20T00:18:45;95749.72;;;-1.10;100.00
20027;BME280;10174;42.688;23.344;2023-12-20T00:21:11;95757.81;;;-1.11;100.00
20027;BME280;10174;42.688;23.344;2023-12-20T00:23:36;95749.19;;;-1.05;100.00
20027;BME280;10174;42.688;23.344;2023-12-20T00:26:02;95721.16;;;-1.06;100.00
20027;BME280;10174;42.688;23.344;2023-12-20T00:28:27;95714.59;;;-1.10;100.00
20027;BME280;10174;42.688;23.344;2023-12-20T00:30:54;95704.84;;;-1.24;100.00
20027;BME280;10174;42.688;23.344;2023-12-20T00:33:19;95736.88;;;-0.98;100.00
20027;BME280;10174;42.688;23.344;2023-12-20T00:35:45;95701.06;;;-1.22;100.00
20027;BME280;10174;42.688;23.344;2023-12-20T00:38:10;95715.63;;;-1.11;100.00
20027;BME280;10174;42.688;23.344;2023-12-20T00:40:37;95715.88;;;-1.06;100.00
20027;BME280;10174;42.688;23.344;2023-12-20T00:43:02;95718.16;;;-1.03;100.00
20027;BME280;10174;42.688;23.344;2023-12-20T00:45:28;95720.53;;;-1.08;100.00
20027;BME280;10174;42.688;23.344;2023-12-20T00:47:54;95715.97;;;-1.14;100.00
20027;BME280;10174;42.688;23.344;2023-12-20T00:50:19;95711.41;;;-1.20;100.00
20027;BME280;10174;42.688;23.344;2023-12-20T00:52:47;95687.28;;;-1.32;100.00
20027;BME280;10174;42.688;23.344;2023-12-20T00:55:12;95672.56;;;-1.41;100.00
20027;BME280;10174;42.688;23.344;2023-12-20T00:57:38;95689.41;;;-1.28;100.00
20027;BME280;10174;42.688;23.344;2023-12-20T01:00:04;95668.56;;;-1.37;100.00
20027;BME280;10174;42.688;23.344;2023-12-20T01:02:29;95680.84;;;-1.30;100.00
20027;BME280;10174;42.688;23.344;2023-12-20T01:04:55;95573.94;;;-2.00;100.00
20027;BME280;10174;42.688;23.344;2023-12-20T01:07:20;95699.59;;;-1.24;100.00
20027;BME280;10174;42.688;23.344;2023-12-20T01:09:46;95650.66;;;-1.42;100.00
20027;BME280;10174;42.688;23.344;2023-12-20T01:12:12;95693.69;;;-1.12;100.00
20027;BME280;10174;42.688;23.344;2023-12-20T01:14:37;95551.34;;;-1.94;100.00
20027;BME280;10174;42.688;23.344;2023-12-20T01:17:04;95686.97;;;-1.14;100.00
20027;BME280;10174;42.688;23.344;2023-12-20T01:19:30;95695.69;;;-1.14;100.00
20027;BME280;10174;42.688;23.344;2023-12-20T01:21:55;95650.72;;;-1.50;100.00
20027;BME280;10174;42.688;23.344;2023-12-20T01:24:21;95682.75;;;-1.38;100.00
20027;BME280;10174;42.688;23.344;2023-12-20T01:26:46;95675.38;;;-1.43;100.00
20027;BME280;10174;42.688;23.344;2023-12-20T01:29:12;95632.38;;;-1.58;100.00
20027;BME280;10174;42.688;23.344;2023-12-20T01:31:39;95652.00;;;-1.46;100.00
20027;BME280;10174;42.688;23.344;2023-12-20T01:34:05;95648.09;;;-1.50;100.00
20027;BME280;10174;42.688;23.344;2023-12-20T01:36:31;95666.81;;;-1.45;100.00
20027;BME280;10174;42.688;23.344;2023-12-20T01:38:56;95656.38;;;-1.38;100.00
20027;BME280;10174;42.688;23.344;2023-12-20T01:41:22;95637.09;;;-1.54;100.00
20027;BME280;10174;42.688;23.344;2023-12-20T01:43:47;95629.28;;;-1.47;100.00
20027;BME280;10174;42.688;23.344;2023-12-20T01:46:13;95655.56;;;-1.39;100.00
20027;BME280;10174;42.688;23.344;2023-12-20T01:48:40;95637.19;;;-1.47;100.00
20027;BME280;10174;42.688;23.344;2023-12-20T01:51:05;95618.16;;;-1.57;100.00
20027;BME280;10174;42.688;23.344;2023-12-20T01:53:31;95624.63;;;-1.45;100.00
20027;BME280;10174;42.688;23.344;2023-12-20T01:55:58;95603.97;;;-1.71;100.00
20027;BME280;10174;42.688;23.344;2023-12-20T01:58:24;95631.34;;;-1.57;100.00
20027;BME280;10174;42.688;23.344;2023-12-20T02:00:51;95635.34;;;-1.62;100.00
20027;BME280;10174;42.688;23.344;2023-12-20T02:03:16;95634.16;;;-1.59;100.00
20027;BME280;10174;42.688;23.344;2023-12-20T02:05:42;95616.16;;;-1.70;100.00
20027;BME280;10174;42.688;23.344;2023-12-20T02:08:09;95619.91;;;-1.65;100.00
20027;BME280;10174;42.688;23.344;2023-12-20T02:10:34;95625.88;;;-1.71;100.00
20027;BME280;10174;42.688;23.344;2023-12-20T02:13:00;95612.22;;;-1.74;100.00
20027;BME280;10174;42.688;23.344;2023-12-20T02:15:25;95621.59;;;-1.72;100.00
20027;BME280;10174;42.688;23.344;2023-12-20T02:17:51;95615.31;;;-1.86;100.00
20027;BME280;10174;42.688;23.344;2023-12-20T02:20:16;95367.91;;;-3.46;100.00
20027;BME280;10174;42.688;23.344;2023-12-20T02:22:42;95602.00;;;-1.92;100.00
20027;BME280;10174;42.688;23.344;2023-12-20T02:25:07;95578.16;;;-2.14;100.00
20027;BME280;10174;42.688;23.344;2023-12-20T02:27:34;95606.03;;;-1.97;100.00
20027;BME280;10174;42.688;23.344;2023-12-20T02:30:00;95611.81;;;-2.01;100.00
20027;BME280;10174;42.688;23.344;2023-12-20T02:32:25;95596.25;;;-2.11;100.00
20027;BME280;10174;42.688;23.344;2023-12-20T02:34:51;95594.91;;;-2.07;100.00
20027;BME280;10174;42.688;23.344;2023-12-20T02:37:17;95572.09;;;-2.15;100.00
20027;BME280;10174;42.688;23.344;2023-12-20T02:39:42;95572.44;;;-2.18;100.00
20027;BME280;10174;42.688;23.344;2023-12-20T02:42:08;95572.72;;;-2.12;100.00
20027;BME280;10174;42.688;23.344;2023-12-20T02:44:33;95581.38;;;-2.04;100.00
20027;BME280;10174;42.688;23.344;2023-12-20T02:46:59;95584.72;;;-2.10;100.00
20027;BME280;10174;42.688;23.344;2023-12-20T02:49:24;95562.28;;;-2.21;100.00
20027;BME280;10174;42.688;23.344;2023-12-20T02:51:50;95588.81;;;-2.07;100.00
20027;BME280;10174;42.688;23.344;2023-12-20T02:54:15;95587.28;;;-2.02;100.00
20027;BME280;10174;42.688;23.344;2023-12-20T02:56:41;95583.50;;;-2.22;100.00
20027;BME280;10174;42.688;23.344;2023-12-20T02:59:07;95580.88;;;-2.45;100.00
20027;BME280;10174;42.688;23.344;2023-12-20T03:01:34;95580.53;;;-2.42;100.00
20027;BME280;10174;42.688;23.344;2023-12-20T03:03:59;95568.34;;;-2.66;100.00
20027;BME280;10174;42.688;23.344;2023-12-20T03:06:25;95582.50;;;-2.67;100.00
20027;BME280;10174;42.688;23.344;2023-12-20T03:08:50;95588.78;;;-2.77;100.00
20027;BME280;10174;42.688;23.344;2023-12-20T03:11:16;95567.50;;;-2.90;100.00
20027;BME280;10174;42.688;23.344;2023-12-20T03:13:41;95559.66;;;-2.98;100.00
20027;BME280;10174;42.688;23.344;2023-12-20T03:16:11;95580.31;;;-2.87;100.00
20027;BME280;10174;42.688;23.344;2023-12-20T03:18:36;95589.53;;;-2.91;100.00
20027;BME280;10174;42.688;23.344;2023-12-20T03:21:02;95560.63;;;-2.91;100.00
20027;BME280;10174;42.688;23.344;2023-12-20T03:23:29;95432.53;;;-3.68;100.00
20027;BME280;10174;42.688;23.344;2023-12-20T03:25:56;95548.44;;;-2.92;100.00
20027;BME280;10174;42.688;23.344;2023-12-20T03:28:21;95572.09;;;-2.61;100.00
20027;BME280;10174;42.688;23.344;2023-12-20T03:30:48;95474.03;;;-3.24;100.00
20027;BME280;10174;42.688;23.344;2023-12-20T03:33:13;95555.84;;;-2.64;100.00
20027;BME280;10174;42.688;23.344;2023-12-20T03:35:39;95554.25;;;-2.74;100.00
20027;BME280;10174;42.688;23.344;2023-12-20T03:38:04;95522.63;;;-2.89;100.00
20027;BME280;10174;42.688;23.344;2023-12-20T03:40:30;95577.47;;;-2.54;100.00
20027;BME280;10174;42.688;23.344;2023-12-20T03:42:55;95576.44;;;-2.45;100.00
20027;BME280;10174;42.688;23.344;2023-12-20T03:45:21;95568.25;;;-2.50;100.00
20027;BME280;10174;42.688;23.344;2023-12-20T03:47:46;95572.03;;;-2.53;100.00
20027;BME280;10174;42.688;23.344;2023-12-20T03:50:13;95551.53;;;-2.57;100.00
20027;BME280;10174;42.688;23.344;2023-12-20T03:52:38;95550.94;;;-2.67;100.00
20027;BME280;10174;42.688;23.344;2023-12-20T03:55:04;95459.91;;;-3.23;100.00
20027;BME280;10174;42.688;23.344;2023-12-20T03:57:29;95550.06;;;-2.60;100.00
20027;BME280;10174;42.688;23.344;2023-12-20T03:59:55;95554.84;;;-2.63;100.00
20027;BME280;10174;42.688;23.344;2023-12-20T04:02:20;95556.16;;;-2.59;100.00
20027;BME280;10174;42.688;23.344;2023-12-20T04:04:46;95546.53;;;-2.52;100.00
20027;BME280;10174;42.688;23.344;2023-12-20T04:07:11;95540.94;;;-2.49;100.00
20027;BME280;10174;42.688;23.344;2023-12-20T04:09:37;95504.97;;;-2.80;100.00
20027;BME280;10174;42.688;23.344;2023-12-20T04:12:03;95509.53;;;-2.74;100.00
20027;BME280;10174;42.688;23.344;2023-12-20T04:14:28;95534.75;;;-2.56;100.00
20027;BME280;10174;42.688;23.344;2023-12-20T04:16:54;95513.53;;;-2.78;100.00
20027;BME280;10174;42.688;23.344;2023-12-20T04:19:20;95447.47;;;-3.29;100.00
20027;BME280;10174;42.688;23.344;2023-12-20T04:21:45;95525.84;;;-2.78;100.00
20027;BME280;10174;42.688;23.344;2023-12-20T04:24:11;95524.06;;;-2.78;100.00
20027;BME280;10174;42.688;23.344;2023-12-20T04:26:36;95501.56;;;-2.89;100.00
20027;BME280;10174;42.688;23.344;2023-12-20T04:29:02;95517.44;;;-2.74;100.00
20027;BME280;10174;42.688;23.344;2023-12-20T04:31:27;95529.13;;;-2.76;100.00
20027;BME280;10174;42.688;23.344;2023-12-20T04:33:53;95463.41;;;-3.08;100.00
20027;BME280;10174;42.688;23.344;2023-12-20T04:36:18;95500.38;;;-2.78;100.00
20027;BME280;10174;42.688;23.344;2023-12-20T04:38:44;95493.19;;;-2.84;100.00
20027;BME280;10174;42.688;23.344;2023-12-20T04:41:09;95382.63;;;-3.60;100.00
20027;BME280;10174;42.688;23.344;2023-12-20T04:43:35;95515.84;;;-2.83;100.00
20027;BME280;10174;42.688;23.344;2023-12-20T04:46:00;95475.25;;;-3.12;100.00
20027;BME280;10174;42.688;23.344;2023-12-20T04:48:26;95514.63;;;-2.95;100.00
20027;BME280;10174;42.688;23.344;2023-12-20T04:50:51;95516.97;;;-3.09;100.00
20027;BME280;10174;42.688;23.344;2023-12-20T04:53:16;95510.09;;;-3.10;100.00
20027;BME280;10174;42.688;23.344;2023-12-20T04:55:42;95509.50;;;-3.20;100.00
20027;BME280;10174;42.688;23.344;2023-12-20T04:58:07;95510.81;;;-3.16;100.00
20027;BME280;10174;42.688;23.344;2023-12-20T05:00:33;95401.38;;;-3.71;100.00
20027;BME280;10174;42.688;23.344;2023-12-20T05:02:58;95487.00;;;-3.23;100.00
20027;BME280;10174;42.688;23.344;2023-12-20T05:05:24;95375.06;;;-3.95;100.00
20027;BME280;10174;42.688;23.344;2023-12-20T05:07:49;95495.72;;;-3.22;100.00
20027;BME280;10174;42.688;23.344;2023-12-20T05:10:15;95496.75;;;-3.31;100.00
20027;BME280;10174;42.688;23.344;2023-12-20T05:12:41;95483.88;;;-3.58;100.00
20027;BME280;10174;42.688;23.344;2023-12-20T05:15:07;95499.13;;;-3.53;100.00
20027;BME280;10174;42.688;23.344;2023-12-20T05:17:32;95483.84;;;-3.89;100.00
20027;BME280;10174;42.688;23.344;2023-12-20T05:19:58;95477.25;;;-3.85;100.00
20027;BME280;10174;42.688;23.344;2023-12-20T05:22:24;95493.91;;;-3.61;100.00
20027;BME280;10174;42.688;23.344;2023-12-20T05:24:49;95488.72;;;-3.78;100.00
20027;BME280;10174;42.688;23.344;2023-12-20T05:27:14;95476.09;;;-3.74;100.00
20027;BME280;10174;42.688;23.344;2023-12-20T05:29:40;95489.25;;;-3.43;100.00
20027;BME280;10174;42.688;23.344;2023-12-20T05:32:06;95481.66;;;-3.37;100.00
20027;BME280;10174;42.688;23.344;2023-12-20T05:34:31;95449.47;;;-3.71;100.00
20027;BME280;10174;42.688;23.344;2023-12-20T05:36:58;95468.28;;;-3.51;100.00
20027;BME280;10174;42.688;23.344;2023-12-20T05:39:23;95347.78;;;-4.25;100.00
20027;BME280;10174;42.688;23.344;2023-12-20T05:41:49;95484.25;;;-3.29;100.00
20027;BME280;10174;42.688;23.344;2023-12-20T05:44:14;95482.59;;;-3.30;100.00
20027;BME280;10174;42.688;23.344;2023-12-20T05:46:40;95484.66;;;-3.49;100.00
20027;BME280;10174;42.688;23.344;2023-12-20T05:49:06;95484.28;;;-3.37;100.00
20027;BME280;10174;42.688;23.344;2023-12-20T05:51:31;95437.94;;;-3.62;100.00
20027;BME280;10174;42.688;23.344;2023-12-20T05:53:58;95452.53;;;-3.59;100.00
20027;BME280;10174;42.688;23.344;2023-12-20T05:56:23;95378.94;;;-3.82;100.00
20027;BME280;10174;42.688;23.344;2023-12-20T05:58:49;95480.81;;;-3.30;100.00
20027;BME280;10174;42.688;23.344;2023-12-20T06:01:15;95438.44;;;-3.35;100.00
20027;BME280;10174;42.688;23.344;2023-12-20T06:03:42;95476.31;;;-3.21;100.00
20027;BME280;10174;42.688;23.344;2023-12-20T06:06:09;95461.13;;;-3.11;100.00
20027;BME280;10174;42.688;23.344;2023-12-20T06:08:34;95424.63;;;-3.29;100.00
20027;BME280;10174;42.688;23.344;2023-12-20T06:11:00;95450.22;;;-2.99;100.00
20027;BME280;10174;42.688;23.344;2023-12-20T06:13:25;95451.94;;;-3.07;100.00
20027;BME280;10174;42.688;23.344;2023-12-20T06:15:53;95449.22;;;-2.98;100.00
20027;BME280;10174;42.688;23.344;2023-12-20T06:18:19;95443.50;;;-3.02;100.00
20027;BME280;10174;42.688;23.344;2023-12-20T06:20:44;95468.06;;;-2.87;100.00
20027;BME280;10174;42.688;23.344;2023-12-20T06:23:10;95450.91;;;-3.06;100.00
20027;BME280;10174;42.688;23.344;2023-12-20T06:25:35;95407.41;;;-3.31;100.00
20027;BME280;10174;42.688;23.344;2023-12-20T06:28:00;95470.75;;;-2.72;100.00
20027;BME280;10174;42.688;23.344;2023-12-20T06:30:26;95389.22;;;-3.18;100.00
20027;BME280;10174;42.688;23.344;2023-12-20T06:32:53;95471.66;;;-2.64;100.00
20027;BME280;10174;42.688;23.344;2023-12-20T06:35:19;95453.72;;;-2.61;100.00
20027;BME280;10174;42.688;23.344;2023-12-20T06:37:45;95450.47;;;-2.48;100.00
20027;BME280;10174;42.688;23.344;2023-12-20T06:40:11;95429.63;;;-2.73;100.00
20027;BME280;10174;42.688;23.344;2023-12-20T06:42:37;95350.31;;;-2.99;100.00
20027;BME280;10174;42.688;23.344;2023-12-20T06:45:03;95460.28;;;-2.42;100.00
20027;BME280;10174;42.688;23.344;2023-12-20T06:47:28;95434.97;;;-2.28;100.00
20027;BME280;10174;42.688;23.344;2023-12-20T06:49:54;95447.06;;;-2.19;100.00
20027;BME280;10174;42.688;23.344;2023-12-20T06:52:19;95408.22;;;-2.31;100.00
20027;BME280;10174;42.688;23.344;2023-12-20T06:54:45;95448.25;;;-2.06;100.00
20027;BME280;10174;42.688;23.344;2023-12-20T06:57:10;95421.84;;;-2.13;100.00
20027;BME280;10174;42.688;23.344;2023-12-20T06:59:40;95433.38;;;-1.99;100.00
20027;BME280;10174;42.688;23.344;2023-12-20T07:02:05;95328.44;;;-2.47;100.00
20027;BME280;10174;42.688;23.344;2023-12-20T07:04:31;95324.91;;;-2.54;100.00
20027;BME280;10174;42.688;23.344;2023-12-20T07:06:56;95396.59;;;-2.07;100.00
20027;BME280;10174;42.688;23.344;2023-12-20T07:09:25;95399.69;;;-2.04;100.00
20027;BME280;10174;42.688;23.344;2023-12-20T07:11:51;95411.31;;;-1.83;100.00
20027;BME280;10174;42.688;23.344;2023-12-20T07:14:16;95432.28;;;-1.60;100.00
20027;BME280;10174;42.688;23.344;2023-12-20T07:16:42;95334.22;;;-2.22;100.00
20027;BME280;10174;42.688;23.344;2023-12-20T07:19:07;95422.00;;;-1.70;100.00
20027;BME280;10174;42.688;23.344;2023-12-20T07:21:33;95281.63;;;-2.37;100.00
20027;BME280;10174;42.688;23.344;2023-12-20T07:23:58;95411.78;;;-1.43;100.00
20027;BME280;10174;42.688;23.344;2023-12-20T07:26:24;95396.34;;;-1.46;100.00
20027;BME280;10174;42.688;23.344;2023-12-20T07:28:49;95299.09;;;-2.14;100.00
20027;BME280;10174;42.688;23.344;2023-12-20T07:31:15;95397.81;;;-1.58;100.00
20027;BME280;10174;42.688;23.344;2023-12-20T07:33:41;95380.94;;;-1.79;100.00
20027;BME280;10174;42.688;23.344;2023-12-20T07:36:07;95385.81;;;-1.46;100.00
20027;BME280;10174;42.688;23.344;2023-12-20T07:38:33;95408.00;;;-1.19;100.00
20027;BME280;10174;42.688;23.344;2023-12-20T07:40:59;95368.19;;;-1.61;100.00
20027;BME280;10174;42.688;23.344;2023-12-20T07:43:24;95400.88;;;-1.40;100.00
20027;BME280;10174;42.688;23.344;2023-12-20T07:45:50;95392.06;;;-1.47;100.00
20027;BME280;10174;42.688;23.344;2023-12-20T07:48:15;95396.25;;;-1.53;100.00
20027;BME280;10174;42.688;23.344;2023-12-20T07:50:41;95411.41;;;-1.40;100.00
20027;BME280;10174;42.688;23.344;2023-12-20T07:53:07;95386.00;;;-1.63;100.00
20027;BME280;10174;42.688;23.344;2023-12-20T07:55:33;95386.19;;;-1.49;100.00
20027;BME280;10174;42.688;23.344;2023-12-20T07:57:59;95360.41;;;-1.69;100.00
20027;BME280;10174;42.688;23.344;2023-12-20T08:00:25;95405.88;;;-1.45;100.00
20027;BME280;10174;42.688;23.344;2023-12-20T08:02:51;95354.25;;;-1.76;100.00
20027;BME280;10174;42.688;23.344;2023-12-20T08:05:16;95404.50;;;-1.41;100.00
20027;BME280;10174;42.688;23.344;2023-12-20T08:07:42;95400.13;;;-1.34;100.00
20027;BME280;10174;42.688;23.344;2023-12-20T08:10:08;95392.84;;;-1.10;100.00
20027;BME280;10174;42.688;23.344;2023-12-20T08:12:33;95361.84;;;-1.08;100.00
20027;BME280;10174;42.688;23.344;2023-12-20T08:14:59;95268.19;;;-1.47;100.00
20027;BME280;10174;42.688;23.344;2023-12-20T08:17:24;95359.56;;;-0.61;100.00
20027;BME280;10174;42.688;23.344;2023-12-20T08:19:51;95378.06;;;0.02;100.00
20027;BME280;10174;42.688;23.344;2023-12-20T08:22:16;95346.22;;;-0.25;100.00
20027;BME280;10174;42.688;23.344;2023-12-20T08:24:42;95365.31;;;0.12;100.00
20027;BME280;10174;42.688;23.344;2023-12-20T08:27:07;95334.38;;;-0.36;100.00
20027;BME280;10174;42.688;23.344;2023-12-20T08:29:35;95373.88;;;-0.21;100.00
20027;BME280;10174;42.688;23.344;2023-12-20T08:32:01;95309.72;;;-0.49;100.00
20027;BME280;10174;42.688;23.344;2023-12-20T08:34:26;95349.53;;;-0.09;100.00
20027;BME280;10174;42.688;23.344;2023-12-20T08:36:52;95352.09;;;0.12;100.00
20027;BME280;10174;42.688;23.344;2023-12-20T08:39:18;95036.97;;;-1.67;100.00
20027;BME280;10174;42.688;23.344;2023-12-20T08:41:43;95343.13;;;0.62;100.00
20027;BME280;10174;42.688;23.344;2023-12-20T08:44:09;95281.03;;;0.44;100.00
20027;BME280;10174;42.688;23.344;2023-12-20T08:46:35;95225.38;;;-0.23;100.00
20027;BME280;10174;42.688;23.344;2023-12-20T08:49:01;95199.75;;;-0.70;100.00
20027;BME280;10174;42.688;23.344;2023-12-20T08:51:26;95192.31;;;-0.95;100.00
20027;BME280;10174;42.688;23.344;2023-12-20T08:53:53;95330.41;;;-0.18;100.00
20027;BME280;10174;42.688;23.344;2023-12-20T08:56:18;95336.22;;;-0.29;100.00
20027;BME280;10174;42.688;23.344;2023-12-20T08:58:45;95338.94;;;-0.23;100.00
20027;BME280;10174;42.688;23.344;2023-12-20T09:01:10;95188.56;;;-1.14;100.00
20027;BME280;10174;42.688;23.344;2023-12-20T09:03:36;95323.53;;;-0.12;100.00
20027;BME280;10174;42.688;23.344;2023-12-20T09:06:01;95294.19;;;-0.31;100.00
20027;BME280;10174;42.688;23.344;2023-12-20T09:08:27;95304.41;;;-0.14;100.00
20027;BME280;10174;42.688;23.344;2023-12-20T09:10:52;95288.75;;;-0.23;100.00
20027;BME280;10174;42.688;23.344;2023-12-20T09:13:18;95288.69;;;0.12;100.00
20027;BME280;10174;42.688;23.344;2023-12-20T09:15:43;95271.94;;;-0.08;100.00
20027;BME280;10174;42.688;23.344;2023-12-20T09:18:09;95280.94;;;0.04;100.00
20027;BME280;10174;42.688;23.344;2023-12-20T09:20:35;95123.81;;;-0.82;100.00
20027;BME280;10174;42.688;23.344;2023-12-20T09:23:00;95250.47;;;0.08;100.00
20027;BME280;10174;42.688;23.344;2023-12-20T09:25:26;95245.78;;;0.10;100.00
20027;BME280;10174;42.688;23.344;2023-12-20T09:27:52;95218.72;;;-0.05;100.00
20027;BME280;10174;42.688;23.344;2023-12-20T09:30:18;95226.47;;;0.03;100.00
20027;BME280;10174;42.688;23.344;2023-12-20T09:32:45;95245.63;;;0.19;100.00
20027;BME280;10174;42.688;23.344;2023-12-20T09:35:10;95227.28;;;0.10;100.00
20027;BME280;10174;42.688;23.344;2023-12-20T09:37:36;95163.19;;;-0.32;100.00
20027;BME280;10174;42.688;23.344;2023-12-20T09:40:02;95226.50;;;0.16;100.00
20027;BME280;10174;42.688;23.344;2023-12-20T09:42:43;95213.06;;;0.11;100.00
20027;BME280;10174;42.688;23.344;2023-12-20T09:45:14;95209.03;;;0.15;100.00
20027;BME280;10174;42.688;23.344;2023-12-20T09:47:43;95196.81;;;0.08;100.00
20027;BME280;10174;42.688;23.344;2023-12-20T09:50:09;95192.75;;;0.12;100.00
20027;BME280;10174;42.688;23.344;2023-12-20T09:52:36;95204.59;;;0.49;100.00
20027;BME280;10174;42.688;23.344;2023-12-20T09:55:03;95194.84;;;0.57;100.00
20027;BME280;10174;42.688;23.344;2023-12-20T09:57:31;95153.56;;;0.35;100.00
20027;BME280;10174;42.688;23.344;2023-12-20T09:59:57;95167.16;;;0.39;100.00
20027;BME280;10174;42.688;23.344;2023-12-20T10:02:24;95190.75;;;0.74;100.00
20027;BME280;10174;42.688;23.344;2023-12-20T10:04:54;95195.63;;;1.04;100.00
20027;BME280;10174;42.688;23.344;2023-12-20T10:07:19;95137.00;;;1.00;100.00
20027;BME280;10174;42.688;23.344;2023-12-20T10:09:46;95119.88;;;1.16;100.00
20027;BME280;10174;42.688;23.344;2023-12-20T10:12:12;95159.50;;;1.30;100.00
20027;BME280;10174;42.688;23.344;2023-12-20T10:14:39;95083.50;;;0.98;100.00
20027;BME280;10174;42.688;23.344;2023-12-20T10:17:05;95143.41;;;1.38;100.00
20027;BME280;10174;42.688;23.344;2023-12-20T10:19:31;95128.06;;;1.53;100.00
20027;BME280;10174;42.688;23.344;2023-12-20T10:21:59;95145.44;;;1.42;100.00
20027;BME280;10174;42.688;23.344;2023-12-20T10:24:25;95163.94;;;1.49;100.00
20027;BME280;10174;42.688;23.344;2023-12-20T10:27:06;95142.97;;;1.86;100.00
20027;BME280;10174;42.688;23.344;2023-12-20T10:29:35;95113.06;;;1.79;100.00
20027;BME280;10174;42.688;23.344;2023-12-20T10:32:23;95124.22;;;1.88;100.00
20027;BME280;10174;42.688;23.344;2023-12-20T10:34:50;95104.50;;;1.77;100.00
20027;BME280;10174;42.688;23.344;2023-12-20T10:37:15;95126.53;;;1.77;100.00
20027;BME280;10174;42.688;23.344;2023-12-20T10:39:42;95042.25;;;1.29;100.00
20027;BME280;10174;42.688;23.344;2023-12-20T10:42:10;95110.59;;;1.84;100.00
20027;BME280;10174;42.688;23.344;2023-12-20T10:44:36;95119.88;;;2.00;100.00
20027;BME280;10174;42.688;23.344;2023-12-20T10:47:03;95061.81;;;1.67;100.00
20027;BME280;10174;42.688;23.344;2023-12-20T10:49:30;95110.97;;;1.88;100.00
20027;BME280;10174;42.688;23.344;2023-12-20T10:51:59;95100.69;;;2.05;100.00
20027;BME280;10174;42.688;23.344;2023-12-20T10:54:27;95067.84;;;1.81;100.00
20027;BME280;10174;42.688;23.344;2023-12-20T10:56:54;95105.28;;;1.84;100.00
20027;BME280;10174;42.688;23.344;2023-12-20T10:59:20;95094.50;;;1.47;100.00
20027;BME280;10174;42.688;23.344;2023-12-20T11:01:47;95020.16;;;1.10;100.00
20027;BME280;10174;42.688;23.344;2023-12-20T11:04:25;95085.34;;;1.43;100.00
20027;BME280;10174;42.688;23.344;2023-12-20T11:07:52;95031.94;;;1.14;100.00
20027;BME280;10174;42.688;23.344;2023-12-20T11:09:59;95023.03;;;1.02;100.00
20027;BME280;10174;42.688;23.344;2023-12-20T11:12:34;95075.44;;;1.32;100.00
20027;BME280;10174;42.688;23.344;2023-12-20T11:15:03;95046.47;;;1.37;100.00
20027;BME280;10174;42.688;23.344;2023-12-20T11:17:30;95060.19;;;1.66;100.00
20027;BME280;10174;42.688;23.344;2023-12-20T11:22:25;95064.34;;;1.48;100.00
20027;BME280;10174;42.688;23.344;2023-12-20T11:24:52;94953.28;;;0.96;100.00
20027;BME280;10174;42.688;23.344;2023-12-20T11:27:19;94911.88;;;0.70;100.00
20027;BME280;10174;42.688;23.344;2023-12-20T11:29:52;94994.50;;;1.11;100.00
20027;BME280;10174;42.688;23.344;2023-12-20T11:35:16;95016.34;;;1.38;100.00
20027;BME280;10174;42.688;23.344;2023-12-20T11:37:42;94999.03;;;1.35;100.00
20027;BME280;10174;42.688;23.344;2023-12-20T11:40:11;94992.66;;;1.50;100.00
20027;BME280;10174;42.688;23.344;2023-12-20T11:42:41;94993.47;;;1.50;100.00
20027;BME280;10174;42.688;23.344;2023-12-20T11:45:12;94960.47;;;1.46;100.00
20027;BME280;10174;42.688;23.344;2023-12-20T11:47:40;94978.56;;;1.56;100.00
20027;BME280;10174;42.688;23.344;2023-12-20T11:50:07;94975.09;;;1.55;100.00
20027;BME280;10174;42.688;23.344;2023-12-20T11:52:33;94961.31;;;1.72;100.00
20027;BME280;10174;42.688;23.344;2023-12-20T11:54:58;94847.13;;;1.11;100.00
20027;BME280;10174;42.688;23.344;2023-12-20T11:57:24;94944.44;;;1.66;100.00
20027;BME280;10174;42.688;23.344;2023-12-20T11:59:50;94945.13;;;1.80;100.00
20027;BME280;10174;42.688;23.344;2023-12-20T12:02:16;94924.38;;;1.77;100.00
20027;BME280;10174;42.688;23.344;2023-12-20T12:04:42;94950.44;;;1.80;100.00
20027;BME280;10174;42.688;23.344;2023-12-20T12:07:07;94866.41;;;1.43;100.00
20027;BME280;10174;42.688;23.344;2023-12-20T12:09:33;94936.88;;;1.95;100.00
20027;BME280;10174;42.688;23.344;2023-12-20T12:11:58;94910.59;;;1.93;100.00
20027;BME280;10174;42.688;23.344;2023-12-20T12:14:24;94941.53;;;2.37;100.00
20027;BME280;10174;42.688;23.344;2023-12-20T12:16:50;94915.47;;;2.71;100.00
20027;BME280;10174;42.688;23.344;2023-12-20T12:19:23;94893.66;;;2.68;100.00
20027;BME280;10174;42.688;23.344;2023-12-20T12:21:49;94902.69;;;2.98;100.00
20027;BME280;10174;42.688;23.344;2023-12-20T12:24:19;94834.19;;;2.27;100.00
20027;BME280;10174;42.688;23.344;2023-12-20T12:26:50;94898.47;;;2.60;100.00
20027;BME280;10174;42.688;23.344;2023-12-20T12:29:15;94887.44;;;2.75;100.00
20027;BME280;10174;42.688;23.344;2023-12-20T12:31:41;94892.13;;;3.21;100.00
20027;BME280;10174;42.688;23.344;2023-12-20T12:34:06;94912.28;;;3.11;100.00
20027;BME280;10174;42.688;23.344;2023-12-20T12:36:34;94868.56;;;3.13;100.00
20027;BME280;10174;42.688;23.344;2023-12-20T12:39:02;94923.16;;;3.75;100.00
20027;BME280;10174;42.688;23.344;2023-12-20T12:41:30;94892.28;;;4.33;100.00
20027;BME280;10174;42.688;23.344;2023-12-20T12:43:55;94887.44;;;4.42;100.00